Date,TemperatureHighF,TemperatureAvgF,TemperatureLowF,DewpointHighF,DewpointAvgF,DewpointLowF,HumidityHigh,HumidityAvg,HumidityLow,PressureMaxIn,PressureMinIn,WindSpeedMaxMPH,WindSpeedAvgMPH,GustSpeedMaxMPH,PrecipitationSumIn
2013-1-1,51.8,38.1,27.1,20.2,13.4,7.4,56,38,21,30.43,30.32,4,1,8,0.00
2013-1-2,55.0,39.7,27.0,19.0,14.1,10.7,55,37,20,30.39,26.91,4,1,7,0.00
2013-1-3,56.3,40.3,27.7,17.3,10.2,-0.4,49,31,18,30.43,30.30,4,1,8,0.00
2013-1-4,55.9,39.7,26.6,16.6,7.7,0.7,41,27,19,30.44,30.34,4,1,7,0.00
2013-1-5,55.6,41.2,29.3,16.3,10.6,6.5,45,29,19,30.46,30.27,4,1,7,0.00
2013-1-6,54.3,42.9,35.6,17.5,12.4,6.5,43,29,20,30.27,30.07,5,1,8,0.00
2013-1-7,63.5,47.7,35.8,27.6,18.1,6.9,65,34,16,30.20,30.08,6,2,12,0.00
2013-1-8,68.9,51.0,35.8,30.6,22.8,8.2,55,34,20,30.34,30.16,7,1,15,0.00
2013-1-9,64.8,50.5,37.9,36.8,29.7,24.0,72,48,22,30.34,29.98,4,1,7,0.00
2013-1-10,57.6,47.8,36.1,35.3,20.7,-0.1,58,36,21,29.99,29.81,17,4,25,0.00
2013-1-11,46.6,37.3,27.9,18.5,6.4,-1.0,46,28,20,30.15,29.99,9,2,14,0.00
2013-1-12,45.0,34.5,26.2,7.0,3.0,-4.5,39,26,20,30.22,30.11,11,2,14,0.00
2013-1-13,42.3,31.1,20.3,6.6,0.8,-6.6,45,28,20,30.28,30.18,8,1,14,0.00
2013-1-14,39.2,30.6,23.9,5.3,-3.5,-8.3,27,22,20,30.49,30.28,9,3,21,0.00
2013-1-15,49.3,33.8,21.0,13.0,3.9,-6.2,41,28,20,30.60,30.48,10,1,14,0.00
2013-1-16,58.5,41.5,27.7,21.8,17.3,9.5,56,39,22,30.58,30.42,9,1,11,0.00
2013-1-17,63.7,45.3,29.8,20.8,15.0,8.1,55,32,17,30.52,30.38,4,1,7,0.00
2013-1-18,63.3,45.9,30.7,18.7,14.3,9.4,46,29,17,30.46,30.33,4,1,6,0.00
2013-1-19,65.7,48.0,31.8,18.5,13.4,7.6,44,26,15,30.47,30.33,4,1,7,0.00
2013-1-20,68.2,48.9,32.9,18.5,12.3,4.7,36,24,13,30.40,30.27,5,1,8,0.00
2013-1-21,68.2,49.9,35.1,18.4,11.4,2.4,31,21,13,30.40,30.27,4,1,8,0.00
2013-1-22,69.6,51.3,35.8,18.5,12.6,3.6,30,22,13,30.36,30.27,4,1,6,0.00
2013-1-23,63.9,52.2,41.9,21.4,15.9,9.4,36,24,17,30.35,30.24,4,1,7,0.00
2013-1-24,56.7,52.9,50.4,45.7,38.1,17.2,76,60,24,30.36,30.23,4,0,6,0.02
2013-1-25,67.8,56.9,50.2,51.4,45.8,42.8,94,68,44,30.35,30.14,4,1,7,0.06
2013-1-26,60.8,53.3,48.9,55.2,51.4,48.5,99,94,73,30.14,29.96,4,1,8,0.25
2013-1-27,62.6,53.8,44.4,50.8,38.8,29.8,99,58,38,30.00,29.92,16,5,24,0.00
2013-1-28,53.6,45.9,37.2,30.4,18.3,7.6,63,35,20,30.16,29.99,11,3,17,0.00
2013-1-29,59.4,46.8,35.2,29.9,24.8,17.2,55,43,27,30.35,30.11,9,2,11,0.00
2013-1-30,66.2,50.2,37.0,34.2,30.4,26.8,72,49,25,30.43,30.31,7,1,9,0.00
2013-1-31,68.7,52.6,39.4,37.4,34.4,30.7,76,53,26,30.40,30.28,4,1,8,0.00
2013-2-1,68.9,53.4,38.7,37.5,34.1,30.3,78,51,24,30.37,30.28,4,1,8,0.00
2013-2-2,69.3,56.0,44.6,36.2,32.6,24.2,66,44,19,30.44,30.29,4,1,6,0.00
2013-2-3,71.4,58.2,48.6,39.2,34.2,31.0,60,42,24,30.29,30.14,4,1,8,0.00
2013-2-4,72.7,56.4,43.7,35.9,29.4,18.3,65,40,13,30.25,30.13,4,1,8,0.00
2013-2-5,71.8,56.7,41.5,32.1,27.2,19.9,63,36,14,30.16,29.97,5,1,8,0.00
2013-2-6,71.8,57.9,46.0,32.6,23.1,14.6,53,29,12,30.18,29.96,9,2,14,0.00
2013-2-7,69.3,56.4,41.7,26.9,21.4,16.1,49,27,13,30.22,29.89,8,2,12,0.00
2013-2-8,56.3,48.5,38.8,32.1,25.5,16.3,58,42,22,29.89,29.81,19,5,30,0.00
2013-2-9,58.1,46.1,37.0,29.9,23.1,15.7,67,43,22,30.07,29.84,8,1,12,0.00
2013-2-10,58.3,45.3,36.3,26.7,19.4,12.0,53,37,20,30.13,30.00,8,2,13,0.00
2013-2-11,53.1,44.8,37.8,29.3,13.9,5.2,67,31,19,30.15,27.47,10,3,17,0.00
2013-2-12,59.9,44.5,31.3,18.1,12.6,3.2,40,28,19,30.43,27.65,5,1,8,0.00
2013-2-13,66.4,50.0,34.9,25.5,20.6,15.6,50,33,17,30.39,30.25,6,1,9,0.00
2013-2-14,69.6,54.4,38.7,29.7,24.3,18.7,60,35,15,30.40,30.26,11,2,16,0.00
2013-2-15,70.3,53.8,38.8,27.7,21.8,16.8,58,32,13,30.50,30.40,6,1,11,0.00
2013-2-16,69.1,54.2,40.1,26.0,21.0,17.1,50,29,14,30.46,30.11,4,1,7,0.00
2013-2-17,74.5,56.9,39.2,23.7,18.7,12.4,46,25,11,30.11,29.92,6,2,12,0.00
2013-2-18,66.4,53.2,41.0,21.7,18.3,12.4,43,26,15,30.20,29.98,6,1,8,0.00
2013-2-19,64.8,50.9,39.2,30.4,23.4,17.3,49,35,16,29.98,29.66,14,4,26,0.00
2013-2-20,57.9,47.9,40.3,39.1,31.4,24.5,77,54,31,29.97,29.63,11,2,16,0.00
2013-2-21,58.3,44.6,34.3,33.5,20.1,9.2,78,42,19,30.16,29.96,11,1,15,0.00
2013-2-22,62.2,47.9,34.2,18.2,13.1,1.5,35,25,18,30.27,30.15,8,1,10,0.00
2013-2-23,64.2,48.9,37.8,23.5,17.0,6.0,49,30,18,30.19,29.95,17,4,25,0.00
2013-2-24,57.0,47.4,39.9,17.0,10.1,5.6,27,22,18,30.32,30.16,16,5,24,0.00
2013-2-25,62.8,46.8,32.2,18.4,11.6,5.0,39,24,16,30.36,30.11,6,1,10,0.00
2013-2-26,60.4,48.4,34.7,18.0,12.4,1.5,36,24,18,30.36,30.14,10,2,17,0.00
2013-2-27,62.8,47.8,33.6,18.0,11.5,4.7,38,23,16,30.47,30.36,6,2,11,0.00
2013-2-28,70.0,52.2,35.8,18.5,11.8,0.9,27,20,12,30.51,30.41,5,1,8,0.00
2013-3-1,77.7,59.5,42.6,25.8,18.5,9.4,31,21,13,30.54,30.38,5,1,8,0.00
2013-3-2,79.3,63.7,45.7,33.1,26.7,18.7,51,27,13,30.43,30.15,8,1,11,0.00
2013-3-3,79.3,68.8,60.3,35.9,25.9,18.7,40,21,14,30.15,29.90,19,7,31,0.00
2013-3-4,75.9,62.7,51.4,41.9,31.4,18.9,57,34,13,30.21,29.97,11,2,17,0.00
2013-3-5,77.0,61.9,46.0,33.1,28.4,21.1,52,31,14,30.23,30.01,12,2,19,0.00
2013-3-6,70.2,61.7,54.1,37.4,29.6,20.1,47,31,16,30.05,29.95,17,7,30,0.00
2013-3-7,64.2,56.5,50.0,35.1,30.9,22.1,53,39,21,30.02,29.92,19,4,29,0.00
2013-3-8,56.1,48.5,44.2,45.9,39.7,34.9,92,72,54,29.94,29.78,17,2,24,0.14
2013-3-9,63.0,52.8,43.5,43.2,36.5,27.2,93,59,26,30.28,29.94,10,2,16,0.01
2013-3-10,71.1,58.6,47.5,36.9,20.8,14.9,66,25,12,30.40,26.98,8,2,14,0.00
2013-3-11,77.2,59.6,42.4,30.6,25.0,16.9,53,30,12,30.34,30.18,5,1,8,0.00
2013-3-12,81.3,64.3,47.5,32.6,28.3,3.9,50,29,12,30.30,26.87,5,1,8,0.00
2013-3-13,86.4,68.5,51.1,35.2,31.1,23.4,48,27,12,30.36,30.24,5,1,8,0.00
2013-3-14,90.7,71.8,54.3,34.0,29.7,23.4,41,23,11,30.33,30.16,5,1,8,0.00
2013-3-15,90.0,72.5,57.9,38.2,31.0,22.9,39,23,11,30.17,29.97,5,1,9,0.00
2013-3-16,89.2,74.5,57.2,31.7,27.7,16.3,35,19,11,30.01,29.85,11,2,16,0.00
2013-3-17,86.0,73.4,64.2,31.5,20.9,14.9,17,14,11,30.05,29.86,12,3,19,0.00
2013-3-18,81.9,68.1,53.1,24.3,19.3,13.5,23,16,11,30.15,29.90,7,1,11,0.00
2013-3-19,82.8,69.9,57.0,30.4,21.5,16.3,24,16,11,30.16,30.00,8,1,11,0.00
2013-3-20,77.5,69.7,62.1,42.1,28.1,20.1,43,22,14,30.12,29.91,14,4,19,0.00
2013-3-21,81.3,67.3,53.1,35.2,25.0,14.4,48,23,11,29.99,29.84,12,2,17,0.00
2013-3-22,79.9,65.7,52.7,24.3,18.6,12.4,22,17,11,29.98,29.86,8,2,12,0.00
2013-3-23,66.4,55.5,44.6,18.5,14.6,6.0,25,20,14,30.27,29.98,11,2,14,0.00
2013-3-24,74.3,50.8,41.5,23.6,11.8,6.5,26,21,11,30.21,30.05,7,1,11,0.00
2013-3-25,78.8,64.0,47.3,24.3,17.9,12.2,26,17,11,30.16,30.00,7,1,11,0.00
2013-3-26,83.1,69.5,56.3,30.6,22.0,14.4,27,17,11,30.01,29.88,10,3,17,0.00
2013-3-27,80.2,68.7,55.9,37.0,29.1,19.9,41,24,12,30.03,29.92,11,3,17,0.00
2013-3-28,79.9,66.7,58.5,40.4,36.6,26.4,48,35,15,30.12,30.03,11,4,14,0.00
2013-3-29,87.6,72.5,55.2,40.4,31.7,24.3,50,24,13,30.22,30.09,9,2,14,0.00
2013-3-30,88.5,72.1,59.2,36.7,29.7,24.0,35,22,12,30.19,30.06,5,1,8,0.00
2013-3-31,82.2,70.3,56.1,40.3,33.1,21.3,45,27,11,30.09,29.97,17,4,24,0.00
2013-4-1,80.4,67.2,56.1,42.8,33.8,21.5,56,31,13,30.09,30.00,19,4,33,0.00
2013-4-2,80.2,64.8,55.0,32.7,29.0,24.5,37,27,14,30.13,30.03,9,2,14,0.00
2013-4-3,87.1,71.2,54.7,39.9,33.1,24.3,51,27,12,30.22,30.09,8,1,16,0.00
2013-4-4,89.6,69.5,57.7,41.9,31.2,23.7,38,26,11,30.15,29.97,10,1,15,0.00
2013-4-5,87.8,74.6,60.8,41.1,32.4,19.9,43,24,12,30.06,29.94,12,3,21,0.00
2013-4-6,87.3,72.9,57.4,35.8,29.1,20.9,38,21,11,30.07,29.94,7,2,11,0.00
2013-4-7,90.0,74.1,59.9,36.2,28.4,16.3,34,20,11,30.00,29.67,19,3,29,0.00
2013-4-8,70.0,60.1,49.1,42.9,30.1,16.8,74,35,13,29.77,29.51,22,7,33,0.01
2013-4-9,70.7,59.5,51.8,23.2,18.4,14.9,27,21,12,30.17,29.77,13,5,21,0.00
2013-4-10,78.3,55.7,46.6,24.1,20.8,14.4,39,27,11,30.25,30.05,8,1,11,0.00
2013-4-11,83.5,68.4,52.5,31.0,22.6,16.3,27,18,11,30.07,29.85,6,1,11,0.00
2013-4-12,87.1,71.3,55.8,34.8,28.8,21.5,41,22,12,30.01,29.87,7,1,11,0.00
2013-4-13,89.4,75.3,58.5,35.8,28.2,18.7,35,19,12,29.92,29.65,18,5,30,0.00
2013-4-14,89.8,72.6,62.2,37.3,30.5,21.3,36,22,11,29.84,29.60,13,3,22,0.00
2013-4-15,79.7,69.0,58.6,33.6,28.4,18.5,35,23,12,29.74,29.58,21,7,33,0.00
2013-4-16,66.9,57.8,52.0,34.1,25.6,18.8,47,30,16,30.01,28.35,14,4,24,0.00
2013-4-17,66.9,56.9,49.3,27.0,19.0,15.6,40,23,14,30.30,30.01,11,4,18,0.00
2013-4-18,71.8,58.6,46.0,22.4,15.6,8.3,35,19,11,30.38,30.27,8,1,14,0.00
2013-4-19,81.7,65.3,45.7,24.3,18.0,9.3,26,17,11,30.35,30.04,9,2,16,0.00
2013-4-20,86.5,70.5,55.4,31.5,23.6,17.5,25,18,11,30.17,30.04,7,1,13,0.00
2013-4-21,94.1,75.1,56.5,38.6,25.9,17.5,26,17,11,30.17,29.97,8,2,14,0.00
2013-4-22,96.4,80.9,61.3,38.6,28.0,16.3,23,15,11,30.04,29.83,11,2,16,0.00
2013-4-23,78.4,68.2,58.6,25.2,19.2,15.4,20,15,12,30.23,29.89,13,3,21,0.00
2013-4-24,84.6,68.6,52.3,31.5,19.1,12.4,21,15,11,30.13,29.97,5,1,10,0.00
2013-4-25,88.7,71.9,54.1,31.5,22.0,13.4,24,16,11,30.06,29.97,8,1,11,0.00
2013-4-26,91.0,75.6,59.0,32.5,24.8,15.2,31,16,11,30.24,30.06,8,1,12,0.00
2013-4-27,95.5,78.7,59.7,38.6,26.4,14.9,22,15,11,30.27,30.07,7,1,12,0.00
2013-4-28,99.9,82.5,62.4,38.5,27.5,14.4,20,14,11,30.10,26.86,8,2,14,0.00
2013-4-29,102.4,86.5,68.9,45.7,30.7,16.8,18,14,11,29.96,29.76,14,3,21,0.00
2013-4-30,97.3,85.5,70.0,41.8,31.9,20.5,25,15,11,29.85,29.73,13,4,21,0.00
2013-5-1,83.7,73.2,63.0,31.2,20.1,14.4,17,13,11,30.41,29.85,13,4,21,0.00
2013-5-2,83.1,69.2,57.6,30.7,19.0,14.4,20,15,11,30.52,26.86,8,2,16,0.00
2013-5-3,91.4,71.9,57.2,37.2,21.7,14.5,21,15,11,30.28,29.90,6,1,8,0.00
2013-5-4,95.0,79.2,59.0,38.6,26.2,15.9,21,14,11,29.90,29.71,17,3,23,0.00
2013-5-5,85.3,74.4,65.5,31.5,22.1,16.3,24,14,11,29.91,29.78,13,4,20,0.00
2013-5-6,80.8,69.7,60.4,41.4,36.5,29.2,43,31,17,30.01,29.91,15,4,21,0.00
2013-5-7,74.5,65.5,57.7,45.7,39.8,30.8,55,40,21,30.05,29.97,15,3,22,0.00
2013-5-8,79.2,66.7,55.8,44.7,41.5,36.6,58,42,23,30.15,30.05,11,2,14,0.00
2013-5-9,81.9,68.7,56.5,47.0,41.8,37.4,55,39,21,30.15,30.07,6,1,14,0.00
2013-5-10,92.3,76.2,59.4,47.9,40.3,28.2,55,32,11,30.22,30.12,7,1,21,0.00
2013-5-11,96.1,74.5,63.1,44.9,38.9,25.1,41,29,11,30.28,30.17,7,1,10,0.00
2013-5-12,101.5,86.3,67.1,45.3,33.4,21.3,32,16,11,30.27,30.09,9,1,15,0.00
2013-5-13,105.4,88.7,69.4,45.7,33.9,20.4,31,15,11,30.17,29.99,11,2,17,0.00
2013-5-14,102.2,89.5,77.5,45.7,35.1,21.3,25,15,11,30.03,29.85,14,4,24,0.00
2013-5-15,100.4,85.7,72.0,44.5,31.9,22.0,25,15,11,30.01,29.87,14,4,30,0.00
2013-5-16,95.0,83.2,70.9,38.6,31.6,22.5,25,16,11,29.94,29.80,17,6,25,0.00
2013-5-17,88.7,76.6,68.7,44.3,36.3,27.6,34,24,15,29.99,29.83,14,6,24,0.00
2013-5-18,92.8,78.3,62.4,46.1,35.2,21.3,39,23,11,30.06,29.94,10,2,15,0.00
2013-5-19,89.1,78.5,64.6,36.9,27.2,18.7,29,16,11,30.11,29.96,10,2,17,0.00
2013-5-20,89.1,75.9,61.5,38.0,28.0,15.3,36,19,11,30.20,27.16,8,2,16,0.00
2013-5-21,96.3,80.7,63.3,38.6,30.0,17.1,26,16,11,30.07,29.78,14,4,24,0.00
2013-5-22,93.2,81.4,71.2,38.6,29.5,21.3,25,15,11,29.80,29.69,19,8,30,0.00
2013-5-23,89.1,76.7,63.5,31.3,25.0,14.8,24,15,11,29.93,29.75,17,6,27,0.00
2013-5-24,94.8,78.4,59.5,38.6,25.1,14.4,21,14,11,30.02,29.89,11,3,18,0.00
2013-5-25,93.2,80.3,67.8,38.6,27.1,17.2,24,14,11,30.00,29.91,14,5,22,0.00
2013-5-26,90.7,80.2,68.2,32.0,27.5,21.3,22,15,11,30.00,29.91,14,6,22,0.00
2013-5-27,96.3,81.1,63.0,38.5,31.3,21.8,33,17,11,30.00,29.13,14,3,21,0.00
2013-5-28,96.3,81.6,68.9,38.6,30.6,21.3,26,16,11,29.86,29.73,9,3,17,0.00
2013-5-29,95.9,81.4,67.1,38.6,33.9,22.4,30,19,11,29.93,29.75,9,2,15,0.00
2013-5-30,101.3,85.8,68.9,45.2,32.5,19.9,25,15,11,29.97,29.82,12,2,22,0.00
2013-5-31,100.6,86.7,70.2,44.5,29.7,19.5,18,13,11,30.08,29.88,10,2,15,0.00
2013-6-1,101.5,85.9,69.1,45.0,29.7,17.5,17,13,11,30.12,29.91,7,1,11,0.00
2013-6-2,107.1,89.3,68.4,45.7,32.8,16.3,20,14,11,29.93,29.75,14,3,22,0.00
2013-6-3,104.9,91.5,74.1,45.7,37.4,28.0,27,16,11,29.90,29.79,11,3,17,0.00
2013-6-4,105.1,87.9,73.0,45.7,34.0,21.3,27,15,11,29.97,29.87,10,2,13,0.00
2013-6-5,107.4,93.5,74.8,45.7,36.4,21.8,20,14,11,30.03,29.88,12,2,17,0.00
2013-6-6,109.4,95.5,77.0,45.7,37.8,25.3,25,14,11,30.00,29.85,7,1,10,0.00
2013-6-7,109.8,90.0,77.4,51.7,34.1,22.5,24,14,11,29.97,29.89,4,1,11,0.00
2013-6-8,114.4,100.6,77.2,52.8,41.9,21.3,30,14,11,30.12,29.89,9,2,14,0.00
2013-6-9,111.7,95.9,80.6,52.8,39.3,26.3,26,14,11,30.06,29.94,11,2,18,0.00
2013-6-10,102.0,90.5,80.6,45.7,35.1,23.8,21,14,11,30.03,29.91,17,5,25,0.00
2013-6-11,104.7,89.1,70.7,45.7,36.4,27.1,26,16,11,30.13,29.98,11,3,16,0.00
2013-6-12,107.2,94.4,78.8,45.7,36.3,24.1,17,13,11,30.09,29.97,14,4,21,0.00
2013-6-13,103.1,90.6,79.0,45.7,37.2,28.3,25,16,11,30.07,29.96,13,6,22,0.00
2013-6-14,104.9,88.8,69.3,45.6,31.8,14.4,15,13,11,30.08,29.92,12,3,24,0.00
2013-6-15,104.0,88.4,70.9,45.7,31.6,14.4,16,13,11,30.04,29.96,12,3,19,0.00
2013-6-16,102.0,88.4,71.1,45.7,31.6,14.9,15,13,11,30.13,30.02,12,3,18,0.00
2013-6-17,106.3,89.8,71.6,45.7,32.4,16.3,22,13,11,30.13,29.97,11,3,17,0.00
2013-6-18,102.9,91.3,79.7,45.7,33.6,21.3,15,13,11,30.01,29.85,17,6,24,0.00
2013-6-19,100.6,87.3,73.8,44.5,33.4,22.4,25,15,11,29.97,29.86,12,4,22,0.00
2013-6-20,99.5,79.5,68.7,38.5,24.1,14.5,15,13,11,30.00,29.89,11,2,16,0.00
2013-6-21,101.1,90.2,73.9,45.0,33.1,21.3,19,13,11,30.03,29.90,12,4,20,0.00
2013-6-22,103.3,88.9,72.0,45.7,32.0,16.6,15,13,11,30.05,29.90,11,3,17,0.00
2013-6-23,103.1,88.0,72.0,45.7,33.0,20.5,25,14,11,29.95,29.81,16,4,29,0.00
2013-6-24,91.4,83.1,74.5,48.4,40.2,29.9,30,22,13,29.98,29.83,14,7,24,0.00
2013-6-25,100.6,87.3,72.7,53.7,47.3,35.9,47,28,11,30.10,29.98,12,4,19,0.00
2013-6-26,106.9,94.2,80.1,56.6,48.6,35.1,37,23,11,30.15,30.05,13,5,20,0.00
2013-6-27,112.3,96.5,78.1,53.6,47.4,35.1,37,21,11,30.24,30.11,9,1,13,0.00
2013-6-28,117.1,100.9,81.7,52.8,46.9,35.1,30,17,11,30.18,29.99,8,1,15,0.00
2013-6-29,118.6,103.2,85.3,58.8,45.0,35.1,25,15,11,30.09,29.93,9,2,14,0.00
2013-6-30,119.5,101.6,86.7,59.5,43.4,30.3,23,14,11,30.05,29.89,9,1,14,0.00
2013-7-1,117.3,104.4,93.0,57.0,45.9,35.1,25,14,11,30.07,29.95,14,2,17,0.00
2013-7-2,117.1,103.8,88.0,53.9,47.5,35.5,27,16,11,30.10,29.94,13,3,20,0.00
2013-7-3,116.2,102.3,87.3,57.7,47.7,36.1,31,17,11,30.05,29.87,8,1,12,0.00
2013-7-4,116.2,103.4,90.3,52.8,46.8,36.0,25,15,11,29.96,29.82,9,2,14,0.00
2013-7-5,112.8,100.0,87.3,62.0,50.4,38.3,36,20,11,29.97,29.85,14,3,24,0.00
2013-7-6,107.6,96.8,85.6,59.1,48.1,35.1,36,21,11,30.02,29.88,13,3,17,0.00
2013-7-7,108.1,96.4,77.4,66.6,46.0,32.6,64,20,11,30.04,26.89,14,2,28,0.07
2013-7-8,109.2,95.4,78.4,52.8,43.4,28.8,36,18,11,30.12,30.00,11,2,23,0.00
2013-7-9,110.8,97.8,83.3,52.7,38.3,28.2,15,13,11,30.19,30.07,11,4,17,0.00
2013-7-10,112.3,97.3,84.4,63.0,46.7,28.2,38,19,11,30.14,29.98,13,2,18,0.00
2013-7-11,95.4,87.1,80.6,66.1,61.7,46.6,56,43,24,30.12,30.01,12,2,20,0.00
2013-7-12,98.1,86.5,78.8,66.3,63.1,61.0,59,46,32,30.15,30.04,8,1,13,0.00
2013-7-13,105.8,91.9,77.5,63.7,53.1,35.1,57,32,11,30.16,30.01,12,2,22,0.00
2013-7-14,107.6,94.4,80.8,61.4,48.0,39.4,35,22,11,30.15,29.99,10,2,17,0.00
2013-7-15,109.2,96.8,84.9,61.6,48.7,35.1,44,23,11,30.05,29.89,11,2,24,0.00
2013-7-16,108.0,95.2,83.3,48.9,41.5,28.8,25,16,11,30.10,29.97,13,3,21,0.00
2013-7-17,108.7,94.2,78.6,45.7,37.6,23.4,24,14,11,30.22,30.07,10,2,15,0.00
2013-7-18,111.9,97.0,79.7,55.4,39.2,21.3,25,14,11,30.18,29.99,8,1,14,0.00
2013-7-19,112.1,95.6,75.7,70.3,55.8,41.9,80,31,11,30.11,29.94,23,2,62,0.43
2013-7-20,107.8,92.3,78.8,70.8,64.0,43.9,76,43,13,30.10,29.91,11,3,23,0.02
2013-7-21,92.3,84.9,78.8,69.7,66.6,63.5,70,55,42,30.12,29.99,9,3,14,0.01
2013-7-22,99.9,88.0,77.5,70.5,66.2,57.7,74,51,31,30.19,30.06,8,1,12,0.00
2013-7-23,102.0,88.4,77.5,68.3,63.0,60.6,60,44,31,30.19,30.07,10,2,16,0.00
2013-7-24,108.5,94.6,80.1,66.4,57.0,41.9,56,33,11,30.13,29.97,9,2,14,0.00
2013-7-25,112.1,98.4,83.8,61.2,52.1,41.9,42,23,11,30.15,30.02,11,2,15,0.00
2013-7-26,109.4,93.9,84.4,64.8,59.4,41.9,46,33,11,30.22,30.12,12,2,20,0.00
2013-7-27,95.7,85.7,78.4,68.3,63.9,60.1,61,49,37,30.27,30.05,8,2,14,0.00
2013-7-28,99.9,84.5,75.9,70.8,61.9,51.3,77,48,29,30.08,29.98,17,2,24,0.15
2013-7-29,103.3,87.7,71.4,62.7,52.1,-4.2,74,36,11,30.15,30.06,11,2,18,0.00
2013-7-30,104.9,92.5,75.7,52.0,43.6,35.1,39,20,11,30.26,30.15,15,2,25,0.00
2013-7-31,108.0,94.0,77.2,58.6,48.9,35.5,46,24,11,30.25,30.06,14,3,19,0.00
2013-8-1,106.3,93.9,81.9,51.1,36.6,26.4,25,14,11,30.12,29.98,16,5,27,0.00
2013-8-2,105.8,90.7,74.3,45.6,35.2,22.4,25,14,11,30.10,29.99,13,4,17,0.00
2013-8-3,107.1,90.6,73.0,45.7,36.1,22.5,28,15,11,30.14,30.03,11,3,15,0.00
2013-8-4,108.7,93.2,76.5,47.2,38.9,26.4,28,16,11,30.15,30.02,11,2,17,0.00
2013-8-5,106.7,92.8,76.6,45.7,36.9,24.3,24,14,11,30.15,30.01,11,3,20,0.00
2013-8-6,105.8,92.2,74.8,45.5,36.2,21.8,25,14,11,30.15,30.03,11,3,18,0.00
2013-8-7,101.3,89.7,75.0,45.0,33.7,22.5,26,14,11,30.16,30.04,13,4,21,0.00
2013-8-8,100.2,88.7,77.2,38.6,32.2,22.5,17,13,11,30.11,30.00,14,5,24,0.00
2013-8-9,102.4,89.0,73.9,45.7,32.8,21.3,19,14,11,30.09,30.00,13,3,21,0.00
2013-8-10,102.6,88.6,71.4,45.7,34.4,23.9,26,15,11,30.15,30.04,11,2,16,0.00
2013-8-11,104.4,88.5,70.2,45.7,34.8,21.3,26,15,11,30.17,30.01,17,2,29,0.00
2013-8-12,106.2,89.7,72.1,45.7,34.5,21.8,23,14,11,30.16,30.02,10,2,16,0.00
2013-8-13,107.1,90.6,70.5,45.7,33.9,18.3,22,14,11,30.18,30.05,9,2,14,0.00
2013-8-14,107.4,91.0,72.9,45.6,33.6,19.2,18,13,11,30.17,30.03,10,2,26,0.00
2013-8-15,106.9,92.8,76.1,45.7,36.3,21.3,23,14,11,30.18,30.04,11,2,15,0.00
2013-8-16,110.3,96.6,80.4,54.2,45.5,35.8,36,19,11,30.17,30.03,12,2,19,0.00
2013-8-17,110.5,97.1,81.3,55.0,48.2,35.1,35,21,11,30.15,29.99,15,3,30,0.00
2013-8-18,106.7,87.6,75.7,69.1,58.4,42.8,78,40,12,30.24,30.08,14,2,20,0.14
2013-8-19,101.1,86.4,71.6,69.9,64.1,57.8,88,52,26,30.27,30.06,8,2,13,0.09
2013-8-20,107.2,93.9,80.6,65.4,53.9,36.5,56,30,12,30.14,29.99,11,2,18,0.00
2013-8-21,108.3,94.1,79.3,58.2,47.2,35.1,42,23,11,30.15,30.02,11,2,16,0.00
2013-8-22,107.6,92.9,81.5,56.3,50.2,41.7,37,24,12,30.15,30.03,16,4,27,0.00
2013-8-23,98.4,86.2,78.8,62.6,58.3,47.9,49,39,24,30.15,29.99,17,3,27,0.00
2013-8-24,94.5,84.1,76.6,68.9,60.1,54.3,64,45,32,30.12,30.03,13,2,20,0.00
2013-8-25,95.2,79.1,72.0,70.1,63.3,58.1,90,60,35,30.25,30.11,14,3,24,0.02
2013-8-26,78.3,73.9,70.7,70.0,67.2,64.3,89,80,68,30.27,30.17,4,1,8,0.19
2013-8-27,96.6,82.1,69.1,67.4,64.6,61.3,91,59,34,30.18,30.04,7,1,11,0.00
2013-8-28,103.1,87.0,75.9,70.0,63.5,59.9,65,47,27,30.16,30.06,14,1,21,0.06
2013-8-29,102.2,89.0,71.8,71.6,66.0,63.0,94,49,30,30.23,30.13,8,1,10,0.05
2013-8-30,94.8,84.9,77.7,75.3,68.5,64.1,89,59,43,30.30,30.15,8,1,13,0.06
2013-8-31,95.0,84.5,76.1,72.4,68.9,63.3,85,61,42,30.20,30.08,11,1,16,0.01
2013-9-1,99.0,85.3,74.7,71.6,69.1,64.8,85,61,35,30.17,30.04,6,1,10,0.00
2013-9-2,101.7,89.1,78.6,69.0,64.1,57.8,67,45,25,30.18,30.02,11,1,21,0.00
2013-9-3,100.2,88.3,77.0,67.3,62.8,55.2,70,45,28,30.23,30.07,10,1,17,0.00
2013-9-4,105.3,87.9,78.8,67.3,60.9,43.5,62,43,13,30.22,30.10,13,2,21,0.02
2013-9-5,103.8,88.4,75.0,65.2,60.1,44.1,70,42,14,30.21,30.08,12,2,17,0.00
2013-9-6,106.3,87.3,76.8,64.6,58.0,42.8,53,39,12,30.16,30.07,12,2,21,0.00
2013-9-7,90.0,82.8,77.9,65.7,61.2,56.6,63,48,38,30.20,30.11,6,1,9,0.00
2013-9-8,90.7,79.8,71.1,69.4,64.3,59.8,87,61,41,30.17,30.02,5,1,8,0.02
2013-9-9,97.7,76.2,71.2,70.4,64.4,56.5,83,68,27,30.06,29.78,7,1,14,0.15
2013-9-10,90.7,57.2,0.0,70.4,61.7,51.3,83,40,36,30.00,29.85,6,1,12,0.00